Aérodrome :
LOGIN :

S'inscrire | Disclaimer

   EN    FR    IT 

 










Légende :    VFR   VFR Marginal   IFR   IFR Intensif   IFR Très Intensif
Visi : 
Plafond : 
>= 8 km
>= 3000ft
5 à 8 km
1000 à 3000 ft
1500m à 5 km
500 à 1000 ft
800 à 1500m
200 à 500 ft
< 800m
< 200 ft
Symboles :   Orages  Brouillard  Fortes neiges  Fortes précipitations  Vent > 20 kt
SIGMETs :   Divers  Orages  Givrage  Turbulence  Onde Orograph.  Cendres Volcan.






- Altitude de l'aérodrome : 82 ft
- Code IATA : QIE


LFMI - Istres

DERNIER METAR :
  • 180000Z AUTO 34017G27KT 310V010 CAVOK 06/00 Q1024 NOSIG

METARs EXPIRÉS :
  • 172330Z AUTO 35010KT 310V040 CAVOK 06/00 Q1024 TEMPO 34025G35KT
  • 172300Z AUTO 34024KT CAVOK 06/00 Q1024 TEMPO 34025G35KT
  • 172230Z AUTO 33027KT CAVOK 06/00 Q1022 TEMPO 34025G35KT
  • 172200Z AUTO 33027KT CAVOK 06/00 Q1022 TEMPO 34025G35KT
  • 172130Z AUTO 34027KT CAVOK 07/00 Q1022 TEMPO 34025G35KT

TAF TAF LFMI
Valide du 17 à 21h jusqu'au 18 à 21h UTC


172000Z 1721/1821 35020G30KT CAVOK TX11/1815Z TN03/1804Z
TEMPO 1721/1806 34025G35KT
BECMG 1815/1817 34010KT



MET'MAP, la Météo Aéronautique d'un coup d'oeil ! - Copyright ORBIFLY Décembre 2007 - Disclaimer

ORBIFLY MET'MAP TEAM :

Programmation & Développement : Alexandra Zaïnal
Sur une idée originale de : Baudouin d'Aumeries
Assistance à la programmation : Marc-Olivier Méhu
Soutien technique & logistique : Manuel Goepfert

Contact : metmap@orbifly.com




SOURCES & CREDITS :

   NOAA